Time;durP1;ratioP1;P1;durP2;ratioP2;P2;SDS_P1;SDS_P2;PMS_P1;PMS_P2;Temp;Humidity;BMP_temperature;BMP_pressure;BME280_temperature;BME280_humidity;BME280_pressure;Samples;Min_cycle;Max_cycle;Signal;HPM_P1;HPM_P2
2021/01/26 00:01:35;;;;;;;0.30;0.30;;;;;;;;;;4997653;28;20037;-70
2021/01/26 00:04:00;;;;;;;0.40;0.40;;;;;;;;;;4990633;28;20026;-69
2021/01/26 00:06:25;;;;;;;0.40;0.40;;;;;;;;;;4985079;28;20053;-70
2021/01/26 00:08:50;;;;;;;0.40;0.40;;;;;;;;;;4997786;28;20034;-71
2021/01/26 00:11:16;;;;;;;0.32;0.32;;;;;;;;;;5014120;28;20494;-71
2021/01/26 00:13:41;;;;;;;0.32;0.32;;;;;;;;;;5014356;28;20080;-70
2021/01/26 00:16:07;;;;;;;0.40;0.40;;;;;;;;;;4997682;28;20073;-70
2021/01/26 00:18:32;;;;;;;0.40;0.40;;;;;;;;;;4993913;28;20057;-70
2021/01/26 00:20:57;;;;;;;0.30;0.30;;;;;;;;;;4994409;28;20041;-70
2021/01/26 00:23:22;;;;;;;0.40;0.40;;;;;;;;;;4977614;28;20387;-71
2021/01/26 00:25:48;;;;;;;0.40;0.40;;;;;;;;;;4980093;28;20027;-70
2021/01/26 00:28:13;;;;;;;0.40;0.40;;;;;;;;;;5014551;28;20033;-70
2021/01/26 00:30:39;;;;;;;0.40;0.40;;;;;;;;;;5013650;28;20495;-70
2021/01/26 00:33:06;;;;;;;0.40;0.40;;;;;;;;;;5013951;28;20056;-70
2021/01/26 00:35:31;;;;;;;0.38;0.38;;;;;;;;;;4996328;28;20423;-70
2021/01/26 00:37:57;;;;;;;0.40;0.40;;;;;;;;;;4996377;28;20157;-70
2021/01/26 00:40:22;;;;;;;0.30;0.30;;;;;;;;;;5011176;28;20037;-69
2021/01/26 00:42:47;;;;;;;0.40;0.40;;;;;;;;;;4991804;28;20022;-70
2021/01/26 00:45:14;;;;;;;0.40;0.40;;;;;;;;;;5012843;28;20488;-69
2021/01/26 00:47:40;;;;;;;0.40;0.40;;;;;;;;;;5013152;28;20032;-70
2021/01/26 00:50:07;;;;;;;0.40;0.40;;;;;;;;;;5012969;28;20030;-71
2021/01/26 00:52:33;;;;;;;0.40;0.40;;;;;;;;;;5012470;28;20533;-70
2021/01/26 00:54:58;;;;;;;0.40;0.40;;;;;;;;;;5012793;28;20037;-70
2021/01/26 00:57:23;;;;;;;0.40;0.40;;;;;;;;;;5012141;28;20072;-70
2021/01/26 00:59:48;;;;;;;0.40;0.40;;;;;;;;;;5004967;28;20395;-70
2021/01/26 01:02:14;;;;;;;0.38;0.38;;;;;;;;;;4993247;28;20058;-70
2021/01/26 01:04:39;;;;;;;0.40;0.40;;;;;;;;;;5004038;28;20025;-70
2021/01/26 01:07:04;;;;;;;0.30;0.30;;;;;;;;;;5012280;28;20068;-71
2021/01/26 01:09:30;;;;;;;0.40;0.40;;;;;;;;;;4995360;28;20018;-70
2021/01/26 01:11:55;;;;;;;0.30;0.30;;;;;;;;;;4995537;28;20080;-70
2021/01/26 01:14:20;;;;;;;0.40;0.40;;;;;;;;;;5012284;28;20109;-70
2021/01/26 01:16:46;;;;;;;0.40;0.40;;;;;;;;;;4995324;28;20394;-70
2021/01/26 01:19:11;;;;;;;0.40;0.40;;;;;;;;;;5011775;28;20022;-71
2021/01/26 01:21:36;;;;;;;0.32;0.32;;;;;;;;;;4995190;28;20028;-70
2021/01/26 01:24:02;;;;;;;0.40;0.40;;;;;;;;;;4994904;28;20022;-70
2021/01/26 01:26:27;;;;;;;0.40;0.40;;;;;;;;;;5013118;28;20018;-70
2021/01/26 01:28:53;;;;;;;0.40;0.40;;;;;;;;;;4994621;28;20101;-70
2021/01/26 01:31:21;;;;;;;0.40;0.40;;;;;;;;;;4995225;28;20312;-70
2021/01/26 01:33:46;;;;;;;0.40;0.40;;;;;;;;;;4994856;28;20014;-70
2021/01/26 01:36:11;;;;;;;0.40;0.40;;;;;;;;;;4995179;28;20087;-71
2021/01/26 01:38:37;;;;;;;0.30;0.30;;;;;;;;;;4994667;28;20103;-70
2021/01/26 01:41:02;;;;;;;0.30;0.30;;;;;;;;;;4995073;28;20486;-70
2021/01/26 01:43:27;;;;;;;0.43;0.43;;;;;;;;;;4994644;28;20498;-70
2021/01/26 01:45:52;;;;;;;0.30;0.30;;;;;;;;;;4995124;28;20045;-70
2021/01/26 01:48:28;;;;;;;0.40;0.40;;;;;;;;;;4994920;28;20259;-71
2021/01/26 01:51:02;;;;;;;0.40;0.40;;;;;;;;;;4978896;28;20024;-71
2021/01/26 01:53:30;;;;;;;0.35;0.35;;;;;;;;;;4994930;28;20032;-72
2021/01/26 01:55:56;;;;;;;0.30;0.30;;;;;;;;;;4978434;28;20054;-71
2021/01/26 01:58:31;;;;;;;0.35;0.35;;;;;;;;;;4995259;28;20117;-71
2021/01/26 02:00:58;;;;;;;0.40;0.40;;;;;;;;;;4994823;28;20021;-71
2021/01/26 02:03:25;;;;;;;0.40;0.40;;;;;;;;;;5012260;28;20371;-72
2021/01/26 02:05:53;;;;;;;0.40;0.40;;;;;;;;;;4994753;28;20022;-71
2021/01/26 02:08:20;;;;;;;0.40;0.40;;;;;;;;;;4992666;28;20103;-71
2021/01/26 02:10:45;;;;;;;0.40;0.40;;;;;;;;;;4994673;28;20509;-72
2021/01/26 02:13:10;;;;;;;0.32;0.32;;;;;;;;;;4994836;28;20050;-72
2021/01/26 02:15:35;;;;;;;0.40;0.40;;;;;;;;;;4994493;28;20022;-72
2021/01/26 02:18:02;;;;;;;0.40;0.40;;;;;;;;;;4994698;28;20034;-72
2021/01/26 02:20:30;;;;;;;0.40;0.40;;;;;;;;;;4994528;28;20037;-72
2021/01/26 02:23:08;;;;;;;0.40;0.40;;;;;;;;;;5011996;28;20010;-71
2021/01/26 02:25:48;;;;;;;0.30;0.30;;;;;;;;;;4994574;28;20037;-71
2021/01/26 02:28:32;;;;;;;0.40;0.40;;;;;;;;;;5011979;28;20021;-72
2021/01/26 02:31:12;;;;;;;0.40;0.40;;;;;;;;;;5011811;28;20050;-72
2021/01/26 02:33:56;;;;;;;0.32;0.32;;;;;;;;;;4978273;28;20049;-72
2021/01/26 02:36:40;;;;;;;0.30;0.30;;;;;;;;;;4975547;28;20022;-72
2021/01/26 02:39:17;;;;;;;0.40;0.40;;;;;;;;;;5011880;28;20097;-71
2021/01/26 02:41:54;;;;;;;0.40;0.40;;;;;;;;;;4994590;28;20109;-71
2021/01/26 02:44:23;;;;;;;0.40;0.40;;;;;;;;;;4994642;28;20026;-71
2021/01/26 02:46:54;;;;;;;0.40;0.40;;;;;;;;;;4994667;28;20463;-71
2021/01/26 02:49:38;;;;;;;0.45;0.45;;;;;;;;;;4995014;28;20454;-71
2021/01/26 02:52:07;;;;;;;0.40;0.40;;;;;;;;;;4975368;28;20019;-71
2021/01/26 02:54:51;;;;;;;0.50;0.50;;;;;;;;;;4992360;28;20109;-71
2021/01/26 02:57:17;;;;;;;0.35;0.35;;;;;;;;;;4975298;28;20026;-71
2021/01/26 02:59:42;;;;;;;0.40;0.40;;;;;;;;;;4978051;28;20026;-71
2021/01/26 03:02:08;;;;;;;0.30;0.30;;;;;;;;;;4996298;28;20491;-71
2021/01/26 03:04:53;;;;;;;0.30;0.30;;;;;;;;;;5003964;28;20292;-71
2021/01/26 03:07:19;;;;;;;0.40;0.40;;;;;;;;;;4982252;28;20155;-71
2021/01/26 03:09:45;;;;;;;0.40;0.40;;;;;;;;;;4998330;28;20038;-70
2021/01/26 03:12:21;;;;;;;0.40;0.40;;;;;;;;;;4981981;28;20025;-70
2021/01/26 03:14:48;;;;;;;0.40;0.40;;;;;;;;;;4997899;28;20022;-71
2021/01/26 03:17:19;;;;;;;0.40;0.40;;;;;;;;;;4997819;28;20032;-70
2021/01/26 03:19:46;;;;;;;0.40;0.40;;;;;;;;;;4998087;28;20077;-71
2021/01/26 03:22:11;;;;;;;0.40;0.40;;;;;;;;;;4981770;28;20108;-71
2021/01/26 03:24:38;;;;;;;0.40;0.40;;;;;;;;;;4981486;28;20034;-71
2021/01/26 03:27:07;;;;;;;0.30;0.30;;;;;;;;;;4998173;28;20733;-71
2021/01/26 03:29:33;;;;;;;0.40;0.40;;;;;;;;;;4999649;28;20057;-71
2021/01/26 03:31:59;;;;;;;0.40;0.40;;;;;;;;;;5014147;28;20458;-71
2021/01/26 03:34:25;;;;;;;0.40;0.40;;;;;;;;;;4997689;28;20026;-71
2021/01/26 03:36:50;;;;;;;0.30;0.30;;;;;;;;;;4997914;28;20025;-71
2021/01/26 03:39:15;;;;;;;0.30;0.30;;;;;;;;;;5014180;28;20029;-71
2021/01/26 03:41:40;;;;;;;0.40;0.40;;;;;;;;;;5013875;28;20141;-71
2021/01/26 03:44:06;;;;;;;0.40;0.40;;;;;;;;;;5013886;28;20029;-71
2021/01/26 03:46:34;;;;;;;0.40;0.40;;;;;;;;;;5013952;28;20033;-72
2021/01/26 03:49:08;;;;;;;0.40;0.40;;;;;;;;;;5014094;28;20093;-72
2021/01/26 03:51:46;;;;;;;0.30;0.30;;;;;;;;;;5015056;28;20109;-70
2021/01/26 03:54:30;;;;;;;0.40;0.40;;;;;;;;;;4997501;28;20030;-71
2021/01/26 03:57:19;;;;;;;0.30;0.30;;;;;;;;;;5014785;28;20021;-71
2021/01/26 04:00:03;;;;;;;0.40;0.40;;;;;;;;;;5013695;28;20025;-71
2021/01/26 04:02:47;;;;;;;0.38;0.38;;;;;;;;;;5015165;28;20045;-71
2021/01/26 04:05:41;;;;;;;0.40;0.40;;;;;;;;;;5014716;28;20111;-71
2021/01/26 04:08:07;;;;;;;0.30;0.30;;;;;;;;;;5001129;28;20510;-71
2021/01/26 04:10:33;;;;;;;0.40;0.40;;;;;;;;;;5013487;28;20021;-71
2021/01/26 04:13:00;;;;;;;0.40;0.40;;;;;;;;;;5013238;28;20032;-71
2021/01/26 04:15:29;;;;;;;0.40;0.40;;;;;;;;;;4993551;28;20022;-71
2021/01/26 04:17:54;;;;;;;0.40;0.40;;;;;;;;;;4977621;28;20028;-71
2021/01/26 04:20:21;;;;;;;0.30;0.30;;;;;;;;;;4993899;28;20640;-71
2021/01/26 04:22:50;;;;;;;0.40;0.40;;;;;;;;;;4977262;28;20025;-71
2021/01/26 04:25:24;;;;;;;0.40;0.40;;;;;;;;;;4995111;28;20058;-70
2021/01/26 04:27:50;;;;;;;0.40;0.40;;;;;;;;;;5013072;28;20018;-71
2021/01/26 04:30:17;;;;;;;0.30;0.30;;;;;;;;;;5012849;28;20506;-71
2021/01/26 04:32:43;;;;;;;0.30;0.30;;;;;;;;;;5013243;28;20746;-71
2021/01/26 04:35:08;;;;;;;0.30;0.30;;;;;;;;;;5012976;28;20030;-71
2021/01/26 04:37:34;;;;;;;0.30;0.30;;;;;;;;;;5012546;28;20030;-71
2021/01/26 04:39:59;;;;;;;0.40;0.40;;;;;;;;;;5012361;28;20025;-71
2021/01/26 04:42:25;;;;;;;0.30;0.30;;;;;;;;;;5012776;28;20545;-71
2021/01/26 04:44:50;;;;;;;0.40;0.40;;;;;;;;;;5012897;28;20075;-71
2021/01/26 04:47:19;;;;;;;0.30;0.30;;;;;;;;;;5012887;28;20423;-70
2021/01/26 04:49:51;;;;;;;0.30;0.30;;;;;;;;;;5012952;28;20364;-70
2021/01/26 04:52:45;;;;;;;0.38;0.38;;;;;;;;;;5012490;28;20025;-70
2021/01/26 04:55:17;;;;;;;0.30;0.30;;;;;;;;;;5000724;28;20096;-71
2021/01/26 04:57:42;;;;;;;0.38;0.38;;;;;;;;;;5012422;28;20060;-71
2021/01/26 05:00:12;;;;;;;0.30;0.30;;;;;;;;;;5013605;28;20022;-71
2021/01/26 05:02:56;;;;;;;0.40;0.40;;;;;;;;;;4996469;28;20057;-72
2021/01/26 05:05:21;;;;;;;0.40;0.40;;;;;;;;;;5013384;28;20022;-71
2021/01/26 05:08:07;;;;;;;0.38;0.38;;;;;;;;;;4995930;28;20590;-71
2021/01/26 05:10:38;;;;;;;0.40;0.40;;;;;;;;;;5012889;28;20383;-71
2021/01/26 05:13:07;;;;;;;0.30;0.30;;;;;;;;;;4995763;28;20037;-71
2021/01/26 05:15:33;;;;;;;0.45;0.45;;;;;;;;;;4992801;28;20438;-71
2021/01/26 05:18:04;;;;;;;0.40;0.40;;;;;;;;;;4992534;28;20031;-71
2021/01/26 05:20:32;;;;;;;0.40;0.40;;;;;;;;;;4975827;28;20057;-71
2021/01/26 05:23:02;;;;;;;0.40;0.40;;;;;;;;;;5004788;28;20068;-70
2021/01/26 05:25:28;;;;;;;0.40;0.40;;;;;;;;;;4991884;28;20121;-70
2021/01/26 05:27:53;;;;;;;0.30;0.30;;;;;;;;;;4987122;28;20125;-71
2021/01/26 05:30:26;;;;;;;0.30;0.30;;;;;;;;;;5011750;28;20054;-71
2021/01/26 05:32:51;;;;;;;0.30;0.30;;;;;;;;;;4991326;28;20050;-72
2021/01/26 05:35:17;;;;;;;0.32;0.32;;;;;;;;;;5005175;28;20060;-72
2021/01/26 05:37:42;;;;;;;0.30;0.30;;;;;;;;;;4993731;28;20034;-72
2021/01/26 05:40:08;;;;;;;0.38;0.38;;;;;;;;;;5002177;28;20049;-72
2021/01/26 05:42:33;;;;;;;0.40;0.40;;;;;;;;;;4992557;28;20084;-77
2021/01/26 05:44:59;;;;;;;0.30;0.30;;;;;;;;;;4977322;28;20018;-76
2021/01/26 05:47:28;;;;;;;0.38;0.38;;;;;;;;;;5013996;28;20092;-76
2021/01/26 05:49:54;;;;;;;0.30;0.30;;;;;;;;;;4993224;28;20045;-76
2021/01/26 05:52:19;;;;;;;0.30;0.30;;;;;;;;;;4993214;28;20013;-75
2021/01/26 05:54:49;;;;;;;0.30;0.30;;;;;;;;;;5004178;28;20042;-76
2021/01/26 05:57:34;;;;;;;0.30;0.30;;;;;;;;;;4976571;28;20085;-75
2021/01/26 06:00:22;;;;;;;0.35;0.35;;;;;;;;;;4976223;28;20022;-76
2021/01/26 06:02:48;;;;;;;0.30;0.30;;;;;;;;;;5005119;28;20101;-75
2021/01/26 06:05:19;;;;;;;0.40;0.40;;;;;;;;;;5012466;28;20510;-76
2021/01/26 06:08:02;;;;;;;0.40;0.40;;;;;;;;;;4995600;28;20021;-75
2021/01/26 06:10:29;;;;;;;0.30;0.30;;;;;;;;;;4992638;28;20026;-75
2021/01/26 06:12:54;;;;;;;0.40;0.40;;;;;;;;;;4977172;28;20029;-76
2021/01/26 06:15:21;;;;;;;0.30;0.30;;;;;;;;;;4992323;28;20030;-75
2021/01/26 06:17:46;;;;;;;0.38;0.38;;;;;;;;;;4994305;28;20069;-76
2021/01/26 06:20:19;;;;;;;0.30;0.30;;;;;;;;;;4986464;28;20505;-75
2021/01/26 06:22:44;;;;;;;0.40;0.40;;;;;;;;;;4992240;28;20018;-76
2021/01/26 06:25:30;;;;;;;0.30;0.30;;;;;;;;;;4986510;28;20092;-76
2021/01/26 06:28:08;;;;;;;0.30;0.30;;;;;;;;;;5012582;28;20030;-76
2021/01/26 06:30:48;;;;;;;0.40;0.40;;;;;;;;;;5011126;28;20073;-76
2021/01/26 06:33:32;;;;;;;0.40;0.40;;;;;;;;;;4982099;28;20022;-74
2021/01/26 06:36:15;;;;;;;0.40;0.40;;;;;;;;;;5015844;28;20076;-75
2021/01/26 06:39:01;;;;;;;0.40;0.40;;;;;;;;;;5008351;28;20089;-76
2021/01/26 06:41:36;;;;;;;0.40;0.40;;;;;;;;;;5015640;28;20030;-75
2021/01/26 06:44:05;;;;;;;0.30;0.30;;;;;;;;;;4990096;28;20490;-75
2021/01/26 06:46:30;;;;;;;0.40;0.40;;;;;;;;;;4996877;28;20022;-74
2021/01/26 06:49:08;;;;;;;0.40;0.40;;;;;;;;;;5015030;28;20029;-75
2021/01/26 06:51:40;;;;;;;0.40;0.40;;;;;;;;;;5011995;28;20276;-73
2021/01/26 06:54:05;;;;;;;0.30;0.30;;;;;;;;;;4993354;28;20361;-76
2021/01/26 06:57:09;;;;;;;0.40;0.40;;;;;;;;;;5014450;28;20010;-77
2021/01/26 06:59:40;;;;;;;0.30;0.30;;;;;;;;;;4958413;29;20023;-77
2021/01/26 07:02:14;;;;;;;0.30;0.30;;;;;;;;;;4959676;28;20027;-78
2021/01/26 07:04:42;;;;;;;0.30;0.30;;;;;;;;;;4985414;28;20033;-77
2021/01/26 07:07:08;;;;;;;0.40;0.40;;;;;;;;;;5015622;28;20018;-77
2021/01/26 07:09:41;;;;;;;0.30;0.30;;;;;;;;;;5017256;28;20049;-76
2021/01/26 07:12:10;;;;;;;0.40;0.40;;;;;;;;;;5014215;28;20289;-76
2021/01/26 07:14:48;;;;;;;0.30;0.30;;;;;;;;;;5021916;28;20478;-78
2021/01/26 07:17:17;;;;;;;0.30;0.30;;;;;;;;;;5013971;28;20112;-78
2021/01/26 07:19:55;;;;;;;0.30;0.30;;;;;;;;;;5020670;28;20371;-78
2021/01/26 07:22:43;;;;;;;0.30;0.30;;;;;;;;;;5019091;28;20028;-78
2021/01/26 07:25:08;;;;;;;0.30;0.30;;;;;;;;;;5005279;28;20084;-77
2021/01/26 07:27:34;;;;;;;0.30;0.30;;;;;;;;;;5018597;28;20022;-76
2021/01/26 07:30:19;;;;;;;0.30;0.30;;;;;;;;;;5017193;28;20042;-76
2021/01/26 07:32:49;;;;;;;0.30;0.30;;;;;;;;;;5015453;28;20049;-77
2021/01/26 07:35:17;;;;;;;0.30;0.30;;;;;;;;;;5004507;28;20080;-77
2021/01/26 07:37:46;;;;;;;0.30;0.30;;;;;;;;;;4987931;28;20041;-79
2021/01/26 07:40:15;;;;;;;0.30;0.30;;;;;;;;;;4990761;28;20486;-78
2021/01/26 07:42:50;;;;;;;0.30;0.30;;;;;;;;;;4991484;28;20029;-77
2021/01/26 07:45:18;;;;;;;0.30;0.30;;;;;;;;;;4983545;28;20030;-78
2021/01/26 07:47:44;;;;;;;0.30;0.30;;;;;;;;;;4985412;28;20767;-76
2021/01/26 07:50:16;;;;;;;0.30;0.30;;;;;;;;;;4980458;28;20019;-76
2021/01/26 07:52:43;;;;;;;0.30;0.30;;;;;;;;;;5012086;28;20026;-76
2021/01/26 07:55:17;;;;;;;0.30;0.30;;;;;;;;;;4981004;28;20064;-75
2021/01/26 07:57:51;;;;;;;0.30;0.30;;;;;;;;;;4978591;28;20058;-76
2021/01/26 08:00:18;;;;;;;0.30;0.30;;;;;;;;;;4979298;28;20028;-77
2021/01/26 08:02:44;;;;;;;0.30;0.30;;;;;;;;;;5004276;28;20021;-77
2021/01/26 08:05:14;;;;;;;0.30;0.30;;;;;;;;;;4981986;28;20022;-77
2021/01/26 08:07:39;;;;;;;0.30;0.30;;;;;;;;;;4976325;28;20023;-79
2021/01/26 08:10:04;;;;;;;0.30;0.30;;;;;;;;;;5008395;28;20375;-77
2021/01/26 08:12:29;;;;;;;0.40;0.40;;;;;;;;;;4986511;28;20022;-79
2021/01/26 08:14:55;;;;;;;0.30;0.30;;;;;;;;;;5011847;28;20022;-75
2021/01/26 08:17:27;;;;;;;0.30;0.30;;;;;;;;;;4974774;28;20353;-75
2021/01/26 08:20:00;;;;;;;0.30;0.30;;;;;;;;;;4961911;28;20494;-76
2021/01/26 08:22:28;;;;;;;0.30;0.30;;;;;;;;;;4997085;28;20026;-80
2021/01/26 08:24:57;;;;;;;0.30;0.30;;;;;;;;;;4991155;28;20040;-79
2021/01/26 08:27:25;;;;;;;0.35;0.35;;;;;;;;;;4975320;28;20075;-78
2021/01/26 08:29:51;;;;;;;0.30;0.30;;;;;;;;;;4989770;28;20042;-79
2021/01/26 08:32:37;;;;;;;0.30;0.30;;;;;;;;;;5032531;28;20085;-79
2021/01/26 08:35:02;;;;;;;0.30;0.30;;;;;;;;;;5028720;28;20053;-79
2021/01/26 08:37:44;;;;;;;0.20;0.20;;;;;;;;;;5036444;28;20029;-81
2021/01/26 08:40:17;;;;;;;0.30;0.30;;;;;;;;;;5010951;28;20272;-78
2021/01/26 08:42:43;;;;;;;0.40;0.40;;;;;;;;;;5020259;28;20044;-78
2021/01/26 08:45:15;;;;;;;0.30;0.30;;;;;;;;;;5021353;28;20069;-77
2021/01/26 08:47:45;;;;;;;0.30;0.30;;;;;;;;;;5006868;28;20013;-80
2021/01/26 08:50:33;;;;;;;0.30;0.30;;;;;;;;;;5022670;28;20018;-77
2021/01/26 08:53:19;;;;;;;0.30;0.30;;;;;;;;;;5003033;28;20034;-78
2021/01/26 08:55:45;;;;;;;0.30;0.30;;;;;;;;;;5018838;28;20060;-77
2021/01/26 08:58:11;;;;;;;0.38;0.38;;;;;;;;;;4999258;28;20026;-77
2021/01/26 09:00:43;;;;;;;0.30;0.30;;;;;;;;;;5002606;28;20529;-78
2021/01/26 09:03:27;;;;;;;0.30;0.30;;;;;;;;;;5005299;28;20006;-80
2021/01/26 09:05:54;;;;;;;0.30;0.30;;;;;;;;;;5036930;28;20025;-79
2021/01/26 09:08:39;;;;;;;0.20;0.20;;;;;;;;;;5038300;28;20009;-81
2021/01/26 09:11:04;;;;;;;0.30;0.30;;;;;;;;;;5022639;28;20045;-82
2021/01/26 09:13:31;;;;;;;0.30;0.30;;;;;;;;;;5030713;28;20034;-80
2021/01/26 09:15:57;;;;;;;0.30;0.30;;;;;;;;;;5022638;28;20010;-79
2021/01/26 09:18:24;;;;;;;0.30;0.30;;;;;;;;;;5002170;28;20058;-81
2021/01/26 09:20:57;;;;;;;0.30;0.30;;;;;;;;;;5022305;28;20151;-79
2021/01/26 09:23:22;;;;;;;0.30;0.30;;;;;;;;;;5014996;28;20105;-78
2021/01/26 09:25:47;;;;;;;0.28;0.28;;;;;;;;;;4993717;28;20053;-80
2021/01/26 09:28:17;;;;;;;0.30;0.30;;;;;;;;;;5016659;28;20014;-79
2021/01/26 09:30:42;;;;;;;0.30;0.30;;;;;;;;;;4998261;28;20038;-78
2021/01/26 09:33:07;;;;;;;0.30;0.30;;;;;;;;;;5022318;28;20021;-81
2021/01/26 09:35:33;;;;;;;0.30;0.30;;;;;;;;;;5033027;28;20030;-79
2021/01/26 09:38:01;;;;;;;0.30;0.30;;;;;;;;;;5027163;28;20253;-79
2021/01/26 09:40:27;;;;;;;0.30;0.30;;;;;;;;;;4998093;28;20048;-74
2021/01/26 09:43:05;;;;;;;0.40;0.40;;;;;;;;;;5015243;28;20387;-76
2021/01/26 09:45:30;;;;;;;0.30;0.30;;;;;;;;;;5013959;28;20053;-78
2021/01/26 09:47:55;;;;;;;0.30;0.30;;;;;;;;;;4980534;28;20006;-77
2021/01/26 09:50:20;;;;;;;0.30;0.30;;;;;;;;;;4997677;28;20529;-79
2021/01/26 09:52:46;;;;;;;0.30;0.30;;;;;;;;;;5013944;28;20005;-80
2021/01/26 09:55:13;;;;;;;0.30;0.30;;;;;;;;;;5020127;28;20022;-80
2021/01/26 09:57:38;;;;;;;0.30;0.30;;;;;;;;;;5019681;28;20041;-80
2021/01/26 10:02:39;;;;;;;0.30;0.30;;;;;;;;;;5292342;23;20057;-75
2021/01/26 10:05:07;;;;;;;0.30;0.30;;;;;;;;;;5018955;28;20041;-77
2021/01/26 10:07:33;;;;;;;0.30;0.30;;;;;;;;;;5030521;28;20093;-80
2021/01/26 10:10:12;;;;;;;0.30;0.30;;;;;;;;;;5061961;28;20401;-82
2021/01/26 10:12:38;;;;;;;0.30;0.30;;;;;;;;;;5040970;28;20006;-78
2021/01/26 10:15:22;;;;;;;0.30;0.30;;;;;;;;;;5035391;28;20029;-77
2021/01/26 10:17:49;;;;;;;0.30;0.30;;;;;;;;;;5047541;28;20027;-78
2021/01/26 10:20:28;;;;;;;0.30;0.30;;;;;;;;;;5031888;28;20080;-78
2021/01/26 10:23:06;;;;;;;0.30;0.30;;;;;;;;;;5023451;28;20424;-77
2021/01/26 10:25:32;;;;;;;0.30;0.30;;;;;;;;;;5013602;28;20470;-78
2021/01/26 10:28:14;;;;;;;0.30;0.30;;;;;;;;;;5006197;28;20024;-77
2021/01/26 10:30:43;;;;;;;0.30;0.30;;;;;;;;;;5012516;28;20085;-76
2021/01/26 10:33:09;;;;;;;0.30;0.30;;;;;;;;;;5023211;28;20048;-75
2021/01/26 10:35:36;;;;;;;0.30;0.30;;;;;;;;;;5006278;28;20569;-75
2021/01/26 10:38:20;;;;;;;0.30;0.30;;;;;;;;;;5021890;28;20028;-77
2021/01/26 10:40:45;;;;;;;0.30;0.30;;;;;;;;;;5042571;28;20052;-76
2021/01/26 10:43:11;;;;;;;0.30;0.30;;;;;;;;;;5010886;28;20022;-78
2021/01/26 10:45:38;;;;;;;0.30;0.30;;;;;;;;;;5028055;28;20025;-77
2021/01/26 10:48:22;;;;;;;0.30;0.30;;;;;;;;;;5024741;28;20055;-75
2021/01/26 10:50:47;;;;;;;0.20;0.20;;;;;;;;;;5041375;28;20014;-75
2021/01/26 10:53:30;;;;;;;0.30;0.30;;;;;;;;;;5026003;28;20025;-75
2021/01/26 10:55:55;;;;;;;0.30;0.30;;;;;;;;;;5043522;28;20100;-76
2021/01/26 10:58:20;;;;;;;0.30;0.30;;;;;;;;;;4997639;28;20054;-75
2021/01/26 11:00:46;;;;;;;0.30;0.30;;;;;;;;;;5005310;28;20046;-76
2021/01/26 11:03:11;;;;;;;0.30;0.30;;;;;;;;;;4988969;28;20058;-77
2021/01/26 11:05:36;;;;;;;0.22;0.22;;;;;;;;;;4997873;28;20018;-76
2021/01/26 11:08:01;;;;;;;0.30;0.30;;;;;;;;;;5015979;28;20088;-74
2021/01/26 11:10:27;;;;;;;0.30;0.30;;;;;;;;;;4996653;28;20023;-73
2021/01/26 11:12:52;;;;;;;0.30;0.30;;;;;;;;;;4995847;28;20038;-76
2021/01/26 11:15:18;;;;;;;0.30;0.30;;;;;;;;;;5007770;28;20421;-75
2021/01/26 11:17:43;;;;;;;0.30;0.30;;;;;;;;;;5014699;28;20018;-74
2021/01/26 11:20:09;;;;;;;0.40;0.40;;;;;;;;;;4998388;28;20030;-75
2021/01/26 11:22:34;;;;;;;0.40;0.40;;;;;;;;;;5013683;28;20682;-74
2021/01/26 11:25:00;;;;;;;0.35;0.35;;;;;;;;;;5014106;28;20032;-74
2021/01/26 11:27:26;;;;;;;0.30;0.30;;;;;;;;;;5013989;28;20026;-73
2021/01/26 11:29:51;;;;;;;0.32;0.32;;;;;;;;;;5013303;28;20034;-74
2021/01/26 11:32:17;;;;;;;0.30;0.30;;;;;;;;;;5006821;28;20022;-75
2021/01/26 11:34:45;;;;;;;0.30;0.30;;;;;;;;;;5010458;28;20030;-75
2021/01/26 11:37:10;;;;;;;0.30;0.30;;;;;;;;;;5000877;28;20041;-78
2021/01/26 11:39:36;;;;;;;0.30;0.30;;;;;;;;;;5020439;28;20018;-78
2021/01/26 11:42:01;;;;;;;0.30;0.30;;;;;;;;;;5032355;28;20021;-79
2021/01/26 11:44:26;;;;;;;0.30;0.30;;;;;;;;;;5004222;28;20109;-77
2021/01/26 11:46:51;;;;;;;0.30;0.30;;;;;;;;;;5019369;28;20022;-77
2021/01/26 11:49:17;;;;;;;0.30;0.30;;;;;;;;;;5018186;28;20370;-77
2021/01/26 11:51:42;;;;;;;0.20;0.20;;;;;;;;;;4995840;28;20022;-77
2021/01/26 11:54:07;;;;;;;0.30;0.30;;;;;;;;;;4998937;28;20018;-76
2021/01/26 11:56:33;;;;;;;0.30;0.30;;;;;;;;;;5014453;28;20034;-75
2021/01/26 11:58:58;;;;;;;0.20;0.20;;;;;;;;;;5012887;28;20022;-75
2021/01/26 12:01:24;;;;;;;0.30;0.30;;;;;;;;;;5014727;28;20041;-74
2021/01/26 12:03:49;;;;;;;0.20;0.20;;;;;;;;;;5016166;28;20022;-74
2021/01/26 12:06:14;;;;;;;0.30;0.30;;;;;;;;;;5033652;28;20022;-74
2021/01/26 12:08:40;;;;;;;0.30;0.30;;;;;;;;;;5009793;28;20022;-74
2021/01/26 12:11:06;;;;;;;0.30;0.30;;;;;;;;;;5000113;28;20042;-75
2021/01/26 12:13:31;;;;;;;0.30;0.30;;;;;;;;;;5016036;28;20469;-75
2021/01/26 12:15:57;;;;;;;0.20;0.20;;;;;;;;;;5016387;28;20097;-75
2021/01/26 12:18:22;;;;;;;0.30;0.30;;;;;;;;;;5033805;28;20021;-75
2021/01/26 12:20:48;;;;;;;0.30;0.30;;;;;;;;;;5016902;28;20088;-75
2021/01/26 12:23:13;;;;;;;0.30;0.30;;;;;;;;;;4996059;28;20413;-75
2021/01/26 12:25:42;;;;;;;0.22;0.22;;;;;;;;;;5016066;28;20113;-75
2021/01/26 12:28:07;;;;;;;0.25;0.25;;;;;;;;;;5034002;28;20013;-76
2021/01/26 12:30:32;;;;;;;0.30;0.30;;;;;;;;;;4997441;28;20024;-75
2021/01/26 12:32:58;;;;;;;0.20;0.20;;;;;;;;;;4998511;28;20117;-75
2021/01/26 12:35:30;;;;;;;0.20;0.20;;;;;;;;;;5016898;28;20108;-77
2021/01/26 12:37:55;;;;;;;0.20;0.20;;;;;;;;;;5001057;28;20462;-76
2021/01/26 12:40:21;;;;;;;0.20;0.20;;;;;;;;;;5012784;28;20057;-75
2021/01/26 12:42:46;;;;;;;0.30;0.30;;;;;;;;;;4990669;28;20025;-75
2021/01/26 12:45:12;;;;;;;0.30;0.30;;;;;;;;;;5016053;28;20064;-75
2021/01/26 12:47:37;;;;;;;0.30;0.30;;;;;;;;;;5012725;28;20064;-75
2021/01/26 12:50:03;;;;;;;0.30;0.30;;;;;;;;;;4996692;28;20018;-76
2021/01/26 12:52:28;;;;;;;0.20;0.20;;;;;;;;;;5015001;28;20460;-75
2021/01/26 12:54:54;;;;;;;0.30;0.30;;;;;;;;;;5016603;28;20029;-75
2021/01/26 12:57:19;;;;;;;0.30;0.30;;;;;;;;;;5033060;28;20032;-77
2021/01/26 12:59:50;;;;;;;0.30;0.30;;;;;;;;;;4994157;28;20087;-77
2021/01/26 13:02:16;;;;;;;0.30;0.30;;;;;;;;;;5017376;28;20064;-77
2021/01/26 13:04:41;;;;;;;0.30;0.30;;;;;;;;;;5017801;28;20025;-77
2021/01/26 13:07:06;;;;;;;0.20;0.20;;;;;;;;;;5018039;28;20326;-77
2021/01/26 13:09:31;;;;;;;0.30;0.30;;;;;;;;;;5017941;28;20053;-76
2021/01/26 13:11:56;;;;;;;0.20;0.20;;;;;;;;;;5017269;28;20127;-77
2021/01/26 13:14:22;;;;;;;0.30;0.30;;;;;;;;;;4994799;28;20272;-76
2021/01/26 13:16:47;;;;;;;0.30;0.30;;;;;;;;;;5004653;28;20537;-77
2021/01/26 13:19:12;;;;;;;0.30;0.30;;;;;;;;;;5039153;28;20271;-78
2021/01/26 13:21:38;;;;;;;0.30;0.30;;;;;;;;;;5037217;28;20185;-77
2021/01/26 13:24:03;;;;;;;0.30;0.30;;;;;;;;;;5020737;28;20399;-78
2021/01/26 13:26:29;;;;;;;0.28;0.28;;;;;;;;;;5020181;28;20021;-77
2021/01/26 13:28:54;;;;;;;0.30;0.30;;;;;;;;;;5002840;28;20052;-76
2021/01/26 13:31:19;;;;;;;0.20;0.20;;;;;;;;;;5020417;28;20067;-76
2021/01/26 13:33:47;;;;;;;0.30;0.30;;;;;;;;;;5002777;28;20428;-77
2021/01/26 13:36:13;;;;;;;0.20;0.20;;;;;;;;;;5003833;28;20018;-76
2021/01/26 13:38:39;;;;;;;0.30;0.30;;;;;;;;;;5019194;28;20478;-76
2021/01/26 13:41:04;;;;;;;0.20;0.20;;;;;;;;;;5017086;28;20013;-75
2021/01/26 13:43:29;;;;;;;0.30;0.30;;;;;;;;;;5017605;28;20009;-75
2021/01/26 13:45:55;;;;;;;0.20;0.20;;;;;;;;;;5017754;28;20025;-76
2021/01/26 13:48:20;;;;;;;0.20;0.20;;;;;;;;;;5000802;28;20355;-76
2021/01/26 13:50:45;;;;;;;0.20;0.20;;;;;;;;;;5001082;28;20267;-77
2021/01/26 13:53:10;;;;;;;0.30;0.30;;;;;;;;;;5019591;28;20075;-77
2021/01/26 13:55:35;;;;;;;0.30;0.30;;;;;;;;;;5004100;28;20022;-77
2021/01/26 13:58:01;;;;;;;0.30;0.30;;;;;;;;;;5003007;28;20062;-76
2021/01/26 14:00:28;;;;;;;0.20;0.20;;;;;;;;;;5002796;28;20498;-77
2021/01/26 14:02:57;;;;;;;0.20;0.20;;;;;;;;;;5021385;28;20053;-77
2021/01/26 14:05:22;;;;;;;0.30;0.30;;;;;;;;;;5022151;28;20051;-77
2021/01/26 14:07:48;;;;;;;0.20;0.20;;;;;;;;;;5022137;28;20044;-78
2021/01/26 14:10:13;;;;;;;0.20;0.20;;;;;;;;;;5024186;28;20022;-78
2021/01/26 14:12:39;;;;;;;0.22;0.22;;;;;;;;;;5020854;28;20017;-77
2021/01/26 14:15:05;;;;;;;0.30;0.30;;;;;;;;;;5004533;28;20239;-77
2021/01/26 14:17:30;;;;;;;0.30;0.30;;;;;;;;;;5007440;28;20025;-77
2021/01/26 14:19:55;;;;;;;0.20;0.20;;;;;;;;;;5019590;28;20022;-77
2021/01/26 14:22:21;;;;;;;0.25;0.25;;;;;;;;;;5019876;28;20073;-77
2021/01/26 14:24:46;;;;;;;0.25;0.25;;;;;;;;;;5019371;28;20052;-77
2021/01/26 14:27:11;;;;;;;0.20;0.20;;;;;;;;;;5020210;28;20049;-77
2021/01/26 14:29:36;;;;;;;0.20;0.20;;;;;;;;;;5044264;28;20041;-79
2021/01/26 14:32:05;;;;;;;0.30;0.30;;;;;;;;;;5018822;28;20096;-76
2021/01/26 14:34:31;;;;;;;0.30;0.30;;;;;;;;;;5016616;28;20025;-77
2021/01/26 14:36:56;;;;;;;0.25;0.25;;;;;;;;;;5016350;28;20089;-77
2021/01/26 14:39:22;;;;;;;0.20;0.20;;;;;;;;;;5016126;28;20097;-77
2021/01/26 14:41:47;;;;;;;0.30;0.30;;;;;;;;;;5017568;28;20035;-77
2021/01/26 14:44:13;;;;;;;0.30;0.30;;;;;;;;;;5015617;28;20025;-76
2021/01/26 14:46:40;;;;;;;0.20;0.20;;;;;;;;;;5016840;28;20028;-76
2021/01/26 14:49:05;;;;;;;0.30;0.30;;;;;;;;;;5034429;28;20348;-76
2021/01/26 14:51:30;;;;;;;0.30;0.30;;;;;;;;;;5022847;28;20033;-74
2021/01/26 14:53:55;;;;;;;0.30;0.30;;;;;;;;;;5025084;28;20096;-76
2021/01/26 14:56:20;;;;;;;0.30;0.30;;;;;;;;;;5045923;28;20024;-74